Time;durP1;ratioP1;P1;durP2;ratioP2;P2;SDS_P1;SDS_P2;PMS_P1;PMS_P2;Temp;Humidity;BMP_temperature;BMP_pressure;BME280_temperature;BME280_humidity;BME280_pressure;Samples;Min_cycle;Max_cycle;Signal;HPM_P1;HPM_P2
2024/02/03 00:02:17;;;;;;;;;;;;;;;4.65;74.42;99724.34;5055072;28;19928;-80
2024/02/03 00:04:42;;;;;;;;;;;;;;;4.56;74.14;99726.56;5073552;28;20019;-79
2024/02/03 00:07:07;;;;;;;;;;;;;;;4.55;74.64;99720.31;5055157;28;19920;-79
2024/02/03 00:09:32;;;;;;;;;;;;;;;4.52;75.59;99715.59;5055019;28;20386;-79
2024/02/03 00:11:58;;;;;;;;;;;;;;;4.51;75.80;99722.22;5055439;28;19920;-80
2024/02/03 00:14:23;;;;;;;;;;;;;;;4.46;75.72;99709.63;5072728;28;19927;-78
2024/02/03 00:16:49;;;;;;;;;;;;;;;4.41;76.04;99718.16;5055262;28;19948;-78
2024/02/03 00:19:14;;;;;;;;;;;;;;;4.30;76.02;99716.44;5054872;28;19923;-78
2024/02/03 00:21:39;;;;;;;;;;;;;;;4.27;76.08;99714.47;5072641;28;19920;-78
2024/02/03 00:24:05;;;;;;;;;;;;;;;4.29;74.16;99714.88;5059670;28;20382;-78
2024/02/03 00:26:30;;;;;;;;;;;;;;;4.35;72.31;99721.59;5055094;28;19916;-78
2024/02/03 00:28:55;;;;;;;;;;;;;;;4.34;72.24;99720.03;5072553;28;19973;-78
2024/02/03 00:31:21;;;;;;;;;;;;;;;4.31;71.10;99720.75;5054941;28;19918;-79
2024/02/03 00:33:46;;;;;;;;;;;;;;;4.43;69.52;99709.59;5055087;28;19916;-78
2024/02/03 00:36:25;;;;;;;;;;;;;;;4.46;69.16;99708.88;5054792;28;20322;-77
2024/02/03 00:38:50;;;;;;;;;;;;;;;4.46;68.88;99711.59;5055160;28;19936;-78
2024/02/03 00:41:16;;;;;;;;;;;;;;;4.39;69.28;99722.44;5054777;28;20270;-78
2024/02/03 00:43:41;;;;;;;;;;;;;;;4.14;70.43;99718.56;5071181;28;19923;-80
2024/02/03 00:46:06;;;;;;;;;;;;;;;3.90;71.07;99715.09;5054611;28;19921;-79
2024/02/03 00:48:32;;;;;;;;;;;;;;;3.76;71.10;99722.25;5054277;28;20447;-79
2024/02/03 00:50:57;;;;;;;;;;;;;;;3.71;71.17;99717.91;5054247;28;19964;-79
2024/02/03 00:53:22;;;;;;;;;;;;;;;3.74;71.02;99721.88;5054152;28;19916;-79
2024/02/03 00:55:48;;;;;;;;;;;;;;;3.99;69.00;99717.56;5054759;28;19959;-79
2024/02/03 00:58:13;;;;;;;;;;;;;;;3.96;69.19;99719.09;5054341;28;19916;-79
2024/02/03 01:00:38;;;;;;;;;;;;;;;3.84;69.94;99718.50;5054740;28;19921;-79
2024/02/03 01:03:04;;;;;;;;;;;;;;;3.73;70.40;99715.59;5053922;28;19929;-79
2024/02/03 01:05:29;;;;;;;;;;;;;;;3.87;69.37;99720.50;5043136;28;19921;-80
2024/02/03 01:07:55;;;;;;;;;;;;;;;3.88;69.05;99717.41;5070076;28;19916;-78
2024/02/03 01:10:20;;;;;;;;;;;;;;;3.97;69.04;99714.41;5054316;28;19920;-79
2024/02/03 01:12:46;;;;;;;;;;;;;;;4.01;68.37;99724.25;5072199;28;19932;-79
2024/02/03 01:15:11;;;;;;;;;;;;;;;4.03;68.39;99721.16;5043471;28;19916;-80
2024/02/03 01:17:37;;;;;;;;;;;;;;;3.97;69.10;99720.69;5069157;28;19923;-80
2024/02/03 01:20:02;;;;;;;;;;;;;;;3.85;70.24;99726.34;5072071;28;20408;-78
2024/02/03 01:22:27;;;;;;;;;;;;;;;3.68;71.00;99713.16;5071756;28;20627;-78
2024/02/03 01:24:53;;;;;;;;;;;;;;;3.63;70.58;99719.72;5072254;28;19916;-80
2024/02/03 01:27:18;;;;;;;;;;;;;;;3.61;70.99;99718.53;5053792;28;19916;-79
2024/02/03 01:29:44;;;;;;;;;;;;;;;3.54;71.67;99707.47;5054077;28;20356;-80
2024/02/03 01:32:09;;;;;;;;;;;;;;;3.49;70.95;99702.31;5053614;28;20446;-78
2024/02/03 01:34:34;;;;;;;;;;;;;;;3.37;71.32;99703.28;5053865;28;19920;-79
2024/02/03 01:37:00;;;;;;;;;;;;;;;3.32;71.55;99710.97;5053503;28;20009;-79
2024/02/03 01:39:25;;;;;;;;;;;;;;;3.28;71.34;99706.25;5071763;28;20363;-78
2024/02/03 01:41:50;;;;;;;;;;;;;;;3.18;71.83;99706.06;5053561;28;19912;-81
2024/02/03 01:44:16;;;;;;;;;;;;;;;3.11;72.21;99703.97;5053551;28;20408;-78
2024/02/03 01:46:41;;;;;;;;;;;;;;;2.98;72.19;99693.56;5071470;28;19912;-78
2024/02/03 01:49:07;;;;;;;;;;;;;;;2.88;72.94;99692.25;5053653;28;19916;-78
2024/02/03 01:51:33;;;;;;;;;;;;;;;2.80;73.67;99685.84;5040057;28;19913;-79
2024/02/03 01:53:59;;;;;;;;;;;;;;;2.85;74.81;99696.47;5053472;28;19920;-78
2024/02/03 01:56:25;;;;;;;;;;;;;;;2.82;73.96;99693.69;5049080;28;20390;-81
2024/02/03 01:58:51;;;;;;;;;;;;;;;2.96;74.23;99693.13;5044643;28;19917;-78
2024/02/03 02:01:16;;;;;;;;;;;;;;;3.06;73.39;99685.16;5070982;28;20401;-79
2024/02/03 02:03:43;;;;;;;;;;;;;;;3.02;73.83;99681.56;5053554;28;19978;-79
2024/02/03 02:06:09;;;;;;;;;;;;;;;2.88;74.89;99680.53;5053159;28;20466;-78
2024/02/03 02:08:35;;;;;;;;;;;;;;;2.77;75.03;99683.06;5053545;28;20015;-78
2024/02/03 02:11:00;;;;;;;;;;;;;;;2.63;75.25;99685.50;5071384;28;19917;-78
2024/02/03 02:13:26;;;;;;;;;;;;;;;2.52;75.21;99684.50;5053299;28;19932;-80
2024/02/03 02:15:52;;;;;;;;;;;;;;;2.47;75.81;99690.25;5053351;28;19954;-79
2024/02/03 02:18:17;;;;;;;;;;;;;;;2.49;75.88;99693.38;5071078;28;19930;-78
2024/02/03 02:20:42;;;;;;;;;;;;;;;2.43;76.30;99696.38;5053235;28;19917;-80
2024/02/03 02:23:08;;;;;;;;;;;;;;;2.35;76.72;99700.09;5053515;28;19917;-79
2024/02/03 02:25:33;;;;;;;;;;;;;;;2.26;77.50;99694.09;5053169;28;20309;-79
2024/02/03 02:27:58;;;;;;;;;;;;;;;2.26;78.65;99702.25;5053172;28;19959;-81
2024/02/03 02:30:24;;;;;;;;;;;;;;;2.20;78.90;99692.78;5052982;28;20015;-79
2024/02/03 02:32:49;;;;;;;;;;;;;;;2.22;79.09;99695.16;5053214;28;19922;-79
2024/02/03 02:35:14;;;;;;;;;;;;;;;2.18;79.31;99694.25;5052841;28;20382;-78
2024/02/03 02:37:40;;;;;;;;;;;;;;;2.10;80.46;99690.63;5052797;28;20390;-78
2024/02/03 02:40:05;;;;;;;;;;;;;;;2.02;81.55;99697.03;5071517;28;19921;-80
2024/02/03 02:42:31;;;;;;;;;;;;;;;2.03;81.97;99693.19;5052991;28;19994;-79
2024/02/03 02:44:56;;;;;;;;;;;;;;;1.94;83.21;99685.19;5052832;28;20459;-78
2024/02/03 02:47:21;;;;;;;;;;;;;;;1.87;82.89;99681.53;5053049;28;19920;-78
2024/02/03 02:49:47;;;;;;;;;;;;;;;1.80;83.70;99675.91;5070498;28;19966;-78
2024/02/03 02:52:12;;;;;;;;;;;;;;;1.85;84.39;99672.91;5052981;28;19924;-80
2024/02/03 02:54:37;;;;;;;;;;;;;;;1.78;84.56;99672.75;5052776;28;19982;-80
2024/02/03 02:57:03;;;;;;;;;;;;;;;1.69;85.01;99667.47;5071146;28;19920;-78
2024/02/03 02:59:28;;;;;;;;;;;;;;;1.60;85.71;99680.50;5052940;28;19917;-79
2024/02/03 03:01:54;;;;;;;;;;;;;;;1.53;85.96;99677.59;5052691;28;20015;-79
2024/02/03 03:04:19;;;;;;;;;;;;;;;1.40;87.44;99668.72;5057512;28;19920;-80
2024/02/03 03:06:44;;;;;;;;;;;;;;;1.40;88.13;99671.44;5054934;28;19916;-77
2024/02/03 03:09:10;;;;;;;;;;;;;;;1.14;87.04;99679.34;5056784;28;20667;-78
2024/02/03 03:11:36;;;;;;;;;;;;;;;0.89;90.03;99670.53;5074427;28;19920;-78
2024/02/03 03:14:01;;;;;;;;;;;;;;;0.73;91.91;99667.75;5056517;28;19920;-78
2024/02/03 03:16:26;;;;;;;;;;;;;;;0.66;93.04;99677.66;5056611;28;20309;-79
2024/02/03 03:18:52;;;;;;;;;;;;;;;0.67;94.70;99674.59;5056214;28;19923;-78
2024/02/03 03:21:17;;;;;;;;;;;;;;;0.78;95.59;99658.56;5056403;28;19916;-78
2024/02/03 03:23:42;;;;;;;;;;;;;;;0.86;95.49;99659.53;5056437;28;20455;-78
2024/02/03 03:26:08;;;;;;;;;;;;;;;0.85;94.85;99664.19;5055919;28;19923;-79
2024/02/03 03:28:33;;;;;;;;;;;;;;;0.88;95.50;99654.53;5056236;28;19923;-78
2024/02/03 03:30:58;;;;;;;;;;;;;;;0.97;95.36;99650.50;5056337;28;19917;-79
2024/02/03 03:33:24;;;;;;;;;;;;;;;1.05;94.96;99648.78;5056154;28;20451;-78
2024/02/03 03:35:49;;;;;;;;;;;;;;;1.06;95.07;99643.00;5056132;28;19966;-78
2024/02/03 03:38:14;;;;;;;;;;;;;;;1.08;94.53;99638.00;5065033;28;20011;-80
2024/02/03 03:40:39;;;;;;;;;;;;;;;1.06;94.40;99634.81;5055801;28;19916;-78
2024/02/03 03:43:05;;;;;;;;;;;;;;;1.08;93.77;99631.75;5073665;28;19963;-78
2024/02/03 03:45:31;;;;;;;;;;;;;;;1.02;94.47;99635.88;5074042;28;19921;-79
2024/02/03 03:47:56;;;;;;;;;;;;;;;1.01;95.37;99635.09;5055763;28;19972;-78
2024/02/03 03:50:22;;;;;;;;;;;;;;;1.02;95.07;99641.31;5055658;28;20397;-78
2024/02/03 03:52:47;;;;;;;;;;;;;;;0.99;94.97;99634.63;5055547;28;19939;-80
2024/02/03 03:55:13;;;;;;;;;;;;;;;1.02;94.56;99638.59;5055975;28;20386;-78
2024/02/03 03:57:38;;;;;;;;;;;;;;;0.99;95.34;99631.91;5055421;28;20389;-78
2024/02/03 04:00:05;;;;;;;;;;;;;;;0.99;95.00;99631.13;5055647;28;20406;-78
2024/02/03 04:02:30;;;;;;;;;;;;;;;1.01;94.91;99631.56;5055325;28;19929;-79
2024/02/03 04:04:56;;;;;;;;;;;;;;;0.95;95.12;99631.03;5055228;28;19916;-78
2024/02/03 04:07:21;;;;;;;;;;;;;;;0.94;95.35;99634.09;5073050;28;19962;-79
2024/02/03 04:09:49;;;;;;;;;;;;;;;0.92;95.33;99633.66;5055297;28;19916;-78
2024/02/03 04:12:15;;;;;;;;;;;;;;;0.89;95.25;99626.22;5055110;28;19920;-78
2024/02/03 04:14:42;;;;;;;;;;;;;;;0.89;94.90;99621.56;5072990;28;19912;-79
2024/02/03 04:17:08;;;;;;;;;;;;;;;0.82;95.42;99614.00;5053587;28;19924;-78
2024/02/03 04:19:33;;;;;;;;;;;;;;;0.85;94.78;99620.66;5043339;28;19970;-79
2024/02/03 04:21:58;;;;;;;;;;;;;;;0.82;95.16;99624.09;5055039;28;20007;-80
2024/02/03 04:24:23;;;;;;;;;;;;;;;0.80;95.05;99621.72;5055294;28;20015;-78
2024/02/03 04:26:49;;;;;;;;;;;;;;;0.76;95.54;99615.41;5055256;28;19917;-79
2024/02/03 04:29:14;;;;;;;;;;;;;;;0.74;95.31;99617.66;5072981;28;19939;-79
2024/02/03 04:31:40;;;;;;;;;;;;;;;0.72;95.58;99624.63;5072789;28;19917;-80
2024/02/03 04:34:05;;;;;;;;;;;;;;;0.76;95.13;99623.56;5054934;28;20342;-78
2024/02/03 04:36:31;;;;;;;;;;;;;;;0.76;95.07;99620.84;5055011;28;20019;-78
2024/02/03 04:38:56;;;;;;;;;;;;;;;0.79;94.83;99628.28;5054911;28;19963;-78
2024/02/03 04:41:22;;;;;;;;;;;;;;;0.75;95.57;99632.06;5072590;28;19921;-78
2024/02/03 04:43:47;;;;;;;;;;;;;;;0.77;94.72;99624.34;5041346;28;19932;-79
2024/02/03 04:46:12;;;;;;;;;;;;;;;0.76;94.34;99623.56;5072667;28;19924;-78
2024/02/03 04:48:38;;;;;;;;;;;;;;;0.79;94.39;99627.50;5072283;28;19974;-78
2024/02/03 04:51:03;;;;;;;;;;;;;;;0.72;94.35;99625.38;5054986;28;19923;-78
2024/02/03 04:53:28;;;;;;;;;;;;;;;0.65;94.23;99624.41;5054621;28;19917;-80
2024/02/03 04:55:54;;;;;;;;;;;;;;;0.54;94.78;99626.06;5054600;28;19931;-78
2024/02/03 04:58:19;;;;;;;;;;;;;;;0.52;94.74;99623.69;5065966;28;19924;-78
2024/02/03 05:00:45;;;;;;;;;;;;;;;0.41;95.12;99611.72;5065035;28;19921;-77
2024/02/03 05:03:10;;;;;;;;;;;;;;;0.37;95.48;99610.81;5032914;28;19956;-78
2024/02/03 05:05:35;;;;;;;;;;;;;;;0.32;95.01;99614.59;5032372;28;19921;-79
2024/02/03 05:08:01;;;;;;;;;;;;;;;0.32;94.72;99621.94;5031230;28;20012;-78
2024/02/03 05:10:26;;;;;;;;;;;;;;;0.21;95.43;99624.38;5032610;28;19920;-79
2024/02/03 05:12:51;;;;;;;;;;;;;;;0.20;95.84;99621.97;5030455;28;19913;-80
2024/02/03 05:15:18;;;;;;;;;;;;;;;0.18;96.21;99627.75;5031288;28;19933;-80
2024/02/03 05:17:43;;;;;;;;;;;;;;;0.07;96.83;99620.44;5032253;28;19969;-77
2024/02/03 05:20:09;;;;;;;;;;;;;;;0.04;96.74;99621.94;5031311;28;20002;-79
2024/02/03 05:22:34;;;;;;;;;;;;;;;0.03;96.53;99624.97;5032080;28;19913;-80
2024/02/03 05:25:00;;;;;;;;;;;;;;;0.11;96.71;99629.50;5031181;28;20317;-80
2024/02/03 05:27:25;;;;;;;;;;;;;;;0.15;95.92;99635.81;5030794;28;20404;-79
2024/02/03 05:29:50;;;;;;;;;;;;;;;0.16;95.63;99634.69;5030348;28;19921;-79
2024/02/03 05:32:16;;;;;;;;;;;;;;;0.13;96.27;99630.72;5030417;28;20475;-79
2024/02/03 05:34:41;;;;;;;;;;;;;;;0.19;95.67;99625.84;5031048;28;19975;-79
2024/02/03 05:37:06;;;;;;;;;;;;;;;0.21;95.81;99634.44;5030486;28;20287;-79
2024/02/03 05:39:31;;;;;;;;;;;;;;;0.20;95.51;99628.22;5031156;28;19963;-79
2024/02/03 05:41:57;;;;;;;;;;;;;;;0.27;95.27;99627.63;5030584;28;20276;-79
2024/02/03 05:44:22;;;;;;;;;;;;;;;0.28;95.02;99626.50;5032043;28;19917;-78
2024/02/03 05:46:47;;;;;;;;;;;;;;;0.24;95.10;99625.63;5030348;28;19923;-80
2024/02/03 05:49:13;;;;;;;;;;;;;;;0.28;95.13;99623.78;5031551;28;19921;-78
2024/02/03 05:51:38;;;;;;;;;;;;;;;0.33;94.57;99629.75;5031935;28;19967;-79
2024/02/03 05:54:03;;;;;;;;;;;;;;;0.44;93.69;99627.34;5031764;28;19924;-78
2024/02/03 05:56:28;;;;;;;;;;;;;;;0.51;93.35;99627.53;5030156;28;19917;-78
2024/02/03 05:58:54;;;;;;;;;;;;;;;0.54;92.93;99626.06;5030246;28;19959;-80
2024/02/03 06:01:19;;;;;;;;;;;;;;;0.58;92.14;99638.59;5035378;28;20393;-78
2024/02/03 06:03:45;;;;;;;;;;;;;;;0.68;91.48;99632.66;5053255;28;19921;-78
2024/02/03 06:06:10;;;;;;;;;;;;;;;0.81;91.13;99633.38;5053728;28;19916;-79
2024/02/03 06:08:37;;;;;;;;;;;;;;;0.85;90.31;99634.25;5053724;28;19986;-78
2024/02/03 06:11:02;;;;;;;;;;;;;;;0.96;89.28;99638.06;5053599;28;19931;-80
2024/02/03 06:13:27;;;;;;;;;;;;;;;0.99;89.02;99625.69;5053630;28;19920;-79
2024/02/03 06:15:53;;;;;;;;;;;;;;;1.06;88.51;99634.81;5053162;28;19916;-78
2024/02/03 06:18:19;;;;;;;;;;;;;;;1.22;88.27;99626.66;5053260;28;19921;-78
2024/02/03 06:20:44;;;;;;;;;;;;;;;1.32;88.13;99622.63;5053430;28;20007;-78
2024/02/03 06:23:10;;;;;;;;;;;;;;;1.44;87.43;99627.97;5053453;28;20003;-79
2024/02/03 06:25:35;;;;;;;;;;;;;;;1.52;86.00;99633.22;5053376;28;19973;-78
2024/02/03 06:28:00;;;;;;;;;;;;;;;1.63;85.96;99636.19;5053469;28;19920;-79
2024/02/03 06:30:27;;;;;;;;;;;;;;;1.72;84.81;99634.09;5048517;28;19920;-80
2024/02/03 06:32:52;;;;;;;;;;;;;;;1.89;84.39;99643.78;5061225;28;19974;-79
2024/02/03 06:35:17;;;;;;;;;;;;;;;2.00;83.15;99642.88;5053665;28;19916;-78
2024/02/03 06:37:43;;;;;;;;;;;;;;;2.08;83.36;99632.13;5049942;28;20318;-79
2024/02/03 06:40:08;;;;;;;;;;;;;;;2.15;82.62;99627.63;5068246;28;19916;-79
2024/02/03 06:42:34;;;;;;;;;;;;;;;2.30;82.53;99634.16;5056391;28;19916;-79
2024/02/03 06:44:59;;;;;;;;;;;;;;;2.45;81.06;99625.91;5056698;28;20459;-81
2024/02/03 06:47:24;;;;;;;;;;;;;;;2.58;80.98;99615.66;5057102;28;20389;-81
2024/02/03 06:49:49;;;;;;;;;;;;;;;2.73;79.53;99619.44;5074651;28;19927;-80
2024/02/03 06:52:15;;;;;;;;;;;;;;;2.88;78.05;99621.28;5085980;28;19923;-77
2024/02/03 06:54:40;;;;;;;;;;;;;;;3.02;77.21;99621.50;5056515;28;19939;-79
2024/02/03 06:57:06;;;;;;;;;;;;;;;3.18;76.35;99619.47;5084373;28;19931;-79
2024/02/03 06:59:31;;;;;;;;;;;;;;;3.34;75.29;99613.06;5052454;28;19946;-81
2024/02/03 07:01:56;;;;;;;;;;;;;;;3.52;73.52;99617.66;5084428;28;19974;-81
2024/02/03 07:04:21;;;;;;;;;;;;;;;3.72;71.64;99620.31;5056504;28;20465;-79
2024/02/03 07:06:47;;;;;;;;;;;;;;;3.93;70.24;99621.38;5086956;28;19917;-79
2024/02/03 07:09:12;;;;;;;;;;;;;;;4.07;69.56;99621.59;5061265;28;19916;-80
2024/02/03 07:11:38;;;;;;;;;;;;;;;4.24;68.31;99619.47;5056667;28;19916;-78
2024/02/03 07:14:03;;;;;;;;;;;;;;;4.40;68.67;99617.34;5066246;28;19924;-80
2024/02/03 07:16:28;;;;;;;;;;;;;;;4.58;66.43;99618.31;5049177;28;19923;-80
2024/02/03 07:18:53;;;;;;;;;;;;;;;4.66;66.54;99613.69;5061052;28;20267;-78
2024/02/03 07:21:19;;;;;;;;;;;;;;;4.81;64.32;99615.44;5074680;28;20370;-79
2024/02/03 07:23:44;;;;;;;;;;;;;;;4.96;65.02;99603.47;5042895;28;20389;-80
2024/02/03 07:26:10;;;;;;;;;;;;;;;5.04;63.06;99599.63;5056383;28;19974;-79
2024/02/03 07:28:36;;;;;;;;;;;;;;;5.19;61.81;99608.75;5074121;28;19955;-79
2024/02/03 07:31:01;;;;;;;;;;;;;;;5.28;62.12;99601.81;5045780;28;20415;-80
2024/02/03 07:33:26;;;;;;;;;;;;;;;5.45;60.64;99605.84;5056670;28;20298;-79
2024/02/03 07:35:52;;;;;;;;;;;;;;;5.54;59.01;99609.06;5056095;28;19956;-80
2024/02/03 07:38:17;;;;;;;;;;;;;;;5.58;59.55;99606.34;5056426;28;20374;-79
2024/02/03 07:40:43;;;;;;;;;;;;;;;5.68;58.89;99591.91;5055748;28;20382;-78
2024/02/03 07:43:08;;;;;;;;;;;;;;;5.84;58.97;99589.69;5055217;28;20393;-79
2024/02/03 07:45:33;;;;;;;;;;;;;;;5.96;57.51;99594.06;5073727;28;19917;-80
2024/02/03 07:47:58;;;;;;;;;;;;;;;6.11;57.48;99595.72;5070365;28;19917;-79
2024/02/03 07:50:24;;;;;;;;;;;;;;;6.21;57.83;99594.97;5059672;28;19912;-78
2024/02/03 07:52:49;;;;;;;;;;;;;;;6.24;56.02;99588.72;5071008;28;19943;-79
2024/02/03 07:55:14;;;;;;;;;;;;;;;6.38;52.66;99580.56;5054687;28;19917;-80
2024/02/03 07:57:40;;;;;;;;;;;;;;;6.56;52.51;99579.81;5054477;28;19974;-79
2024/02/03 08:00:06;;;;;;;;;;;;;;;6.67;53.20;99577.88;5055061;28;19965;-79
2024/02/03 08:02:31;;;;;;;;;;;;;;;6.74;50.27;99583.41;5039203;28;19932;-79
2024/02/03 08:04:57;;;;;;;;;;;;;;;6.84;52.83;99579.88;5032152;28;19917;-79
2024/02/03 08:07:22;;;;;;;;;;;;;;;6.86;51.27;99581.06;5032984;28;20063;-79
2024/02/03 08:09:47;;;;;;;;;;;;;;;6.89;52.03;99577.53;5032202;28;19913;-80
2024/02/03 08:12:13;;;;;;;;;;;;;;;7.02;50.59;99571.66;5031379;28;19913;-81
2024/02/03 08:14:38;;;;;;;;;;;;;;;7.07;51.74;99572.06;5031612;28;19917;-78
2024/02/03 08:17:04;;;;;;;;;;;;;;;7.17;52.31;99571.25;5031212;28;20364;-79
2024/02/03 08:19:29;;;;;;;;;;;;;;;7.21;51.71;99579.53;5032875;28;20488;-80
2024/02/03 08:21:54;;;;;;;;;;;;;;;7.30;51.04;99575.19;5031556;28;19970;-81
2024/02/03 08:24:19;;;;;;;;;;;;;;;7.49;50.77;99573.22;5031962;28;19917;-79
2024/02/03 08:26:45;;;;;;;;;;;;;;;7.56;50.88;99573.22;5031568;28;19920;-79
2024/02/03 08:29:11;;;;;;;;;;;;;;;7.59;48.95;99569.69;5032980;28;19913;-80
2024/02/03 08:31:36;;;;;;;;;;;;;;;7.65;48.82;99568.91;5031564;28;20391;-79
2024/02/03 08:34:02;;;;;;;;;;;;;;;7.68;50.32;99561.81;5032460;28;19917;-80
2024/02/03 08:36:27;;;;;;;;;;;;;;;7.90;50.22;99557.03;5032675;28;19971;-80
2024/02/03 08:38:53;;;;;;;;;;;;;;;8.05;49.45;99562.13;5031509;28;20005;-80
2024/02/03 08:41:18;;;;;;;;;;;;;;;8.14;48.89;99553.41;5031472;28;20362;-79
2024/02/03 08:43:44;;;;;;;;;;;;;;;8.16;49.19;99549.09;5031462;28;19921;-80
2024/02/03 08:46:09;;;;;;;;;;;;;;;8.29;48.58;99537.63;5032540;28;19928;-79
2024/02/03 08:48:34;;;;;;;;;;;;;;;8.24;47.54;99541.59;5031240;28;19963;-80
2024/02/03 08:51:00;;;;;;;;;;;;;;;8.29;47.46;99535.66;5030996;28;19913;-79
2024/02/03 08:53:25;;;;;;;;;;;;;;;8.39;48.52;99543.13;5025681;28;19914;-78
2024/02/03 08:55:50;;;;;;;;;;;;;;;8.50;48.13;99545.81;5022628;28;19914;-79
2024/02/03 08:58:16;;;;;;;;;;;;;;;8.57;47.56;99543.03;5032036;28;19983;-78
2024/02/03 09:00:41;;;;;;;;;;;;;;;8.51;46.68;99544.63;5031132;28;20298;-78
2024/02/03 09:03:06;;;;;;;;;;;;;;;8.59;46.75;99540.66;5066726;28;20319;-79
2024/02/03 09:05:32;;;;;;;;;;;;;;;8.73;48.06;99545.31;5041052;28;19916;-80
2024/02/03 09:07:57;;;;;;;;;;;;;;;8.88;47.28;99549.53;5053721;28;19927;-79
2024/02/03 09:10:24;;;;;;;;;;;;;;;8.93;46.34;99547.13;5071696;28;20289;-79
2024/02/03 09:12:53;;;;;;;;;;;;;;;9.05;47.24;99543.09;5054367;28;19919;-80
2024/02/03 09:15:18;;;;;;;;;;;;;;;9.27;49.91;99539.00;5058835;28;19962;-79
2024/02/03 09:17:43;;;;;;;;;;;;;;;9.37;44.33;99540.88;5053784;28;19924;-78
2024/02/03 09:20:09;;;;;;;;;;;;;;;9.58;45.44;99528.84;5053950;28;19916;-78
2024/02/03 09:22:34;;;;;;;;;;;;;;;9.80;46.10;99527.44;5071032;28;19913;-78
2024/02/03 09:24:59;;;;;;;;;;;;;;;9.95;43.67;99532.78;5071177;28;19912;-79
2024/02/03 09:27:25;;;;;;;;;;;;;;;10.41;44.49;99537.78;5053561;28;20014;-79
2024/02/03 09:29:50;;;;;;;;;;;;;;;10.89;44.79;99524.47;5053165;28;19920;-79
2024/02/03 09:32:15;;;;;;;;;;;;;;;11.00;42.46;99518.75;5071050;28;20378;-80
2024/02/03 09:34:48;;;;;;;;;;;;;;;11.09;40.97;99524.50;5051129;28;19920;-80
2024/02/03 09:37:13;;;;;;;;;;;;;;;11.50;39.49;99521.47;5071609;28;19927;-78
2024/02/03 09:39:40;;;;;;;;;;;;;;;11.52;41.64;99521.81;5053879;28;19916;-79
2024/02/03 09:42:06;;;;;;;;;;;;;;;11.57;41.24;99517.78;5040277;28;20385;-80
2024/02/03 09:44:32;;;;;;;;;;;;;;;11.91;42.74;99515.59;5053724;28;19946;-80
2024/02/03 09:46:57;;;;;;;;;;;;;;;11.95;39.77;99516.28;5053723;28;19924;-80
2024/02/03 09:49:23;;;;;;;;;;;;;;;12.17;38.53;99506.34;5042286;28;19928;-81
2024/02/03 09:51:48;;;;;;;;;;;;;;;12.20;38.23;99502.72;5071080;28;20306;-79
2024/02/03 09:54:13;;;;;;;;;;;;;;;11.33;36.98;99500.44;5053782;28;20370;-80
2024/02/03 09:56:39;;;;;;;;;;;;;;;11.27;38.20;99499.34;5071091;28;19917;-81
2024/02/03 09:59:05;;;;;;;;;;;;;;;11.86;38.45;99490.38;5053353;28;19970;-81
2024/02/03 10:01:30;;;;;;;;;;;;;;;12.50;37.25;99487.03;5053632;28;20437;-80
2024/02/03 10:03:56;;;;;;;;;;;;;;;12.86;35.34;99487.78;5053752;28;19924;-78
2024/02/03 10:06:21;;;;;;;;;;;;;;;12.78;35.31;99485.63;5047911;28;19916;-80
2024/02/03 10:08:53;;;;;;;;;;;;;;;12.18;36.20;99485.72;5063394;28;19926;-78
2024/02/03 10:11:19;;;;;;;;;;;;;;;12.03;37.48;99486.47;5053109;28;19912;-79
2024/02/03 10:13:47;;;;;;;;;;;;;;;12.00;35.56;99495.63;5053302;28;19921;-81
2024/02/03 10:16:12;;;;;;;;;;;;;;;11.42;36.46;99487.59;5056095;28;19967;-79
2024/02/03 10:18:37;;;;;;;;;;;;;;;11.22;36.65;99481.22;5047041;28;19929;-79
2024/02/03 10:21:03;;;;;;;;;;;;;;;11.02;37.97;99481.19;5075577;28;19917;-80
2024/02/03 10:23:29;;;;;;;;;;;;;;;10.68;37.36;99479.75;5057437;28;19920;-79
2024/02/03 10:25:58;;;;;;;;;;;;;;;10.61;38.67;99481.44;5053799;28;20417;-80
2024/02/03 10:28:23;;;;;;;;;;;;;;;10.85;37.30;99473.19;5075127;28;19924;-80
2024/02/03 10:30:50;;;;;;;;;;;;;;;10.90;38.75;99469.94;5055953;28;19917;-78
2024/02/03 10:33:16;;;;;;;;;;;;;;;10.93;38.41;99463.56;5053498;28;19920;-80
2024/02/03 10:35:41;;;;;;;;;;;;;;;10.69;38.85;99459.22;5089147;28;19969;-79
2024/02/03 10:38:06;;;;;;;;;;;;;;;10.49;38.37;99462.66;5077233;28;19924;-78
2024/02/03 10:40:33;;;;;;;;;;;;;;;10.55;39.99;99461.00;5071439;28;20009;-77
2024/02/03 10:42:59;;;;;;;;;;;;;;;10.54;40.29;99453.94;5056565;28;19921;-78
2024/02/03 10:45:28;;;;;;;;;;;;;;;10.56;39.55;99445.97;5054849;28;20439;-80
2024/02/03 10:47:54;;;;;;;;;;;;;;;10.57;39.21;99444.00;5073890;28;20019;-79
2024/02/03 10:50:21;;;;;;;;;;;;;;;10.63;39.12;99441.53;5052781;28;20417;-80
2024/02/03 10:52:49;;;;;;;;;;;;;;;10.63;39.77;99441.53;5068785;28;19924;-78
2024/02/03 10:55:15;;;;;;;;;;;;;;;10.74;39.62;99439.38;5053572;28;19924;-79
2024/02/03 10:57:43;;;;;;;;;;;;;;;10.93;39.35;99436.69;5056716;28;19920;-78
2024/02/03 11:00:10;;;;;;;;;;;;;;;11.12;39.00;99426.91;5073928;28;19936;-79
2024/02/03 11:02:35;;;;;;;;;;;;;;;11.09;38.16;99419.44;5073878;28;19924;-77
2024/02/03 11:05:01;;;;;;;;;;;;;;;11.16;38.32;99419.31;5056474;28;19974;-81
2024/02/03 11:07:27;;;;;;;;;;;;;;;11.38;38.24;99406.66;5054540;28;19920;-79
2024/02/03 11:09:58;;;;;;;;;;;;;;;11.78;38.18;99412.22;5073508;28;20333;-79
2024/02/03 11:12:32;;;;;;;;;;;;;;;12.04;37.28;99404.94;5055725;28;20435;-79
2024/02/03 11:14:57;;;;;;;;;;;;;;;11.99;36.77;99399.91;5054680;28;19921;-78
2024/02/03 11:17:22;;;;;;;;;;;;;;;12.05;36.84;99396.22;5054054;28;19925;-79
2024/02/03 11:19:47;;;;;;;;;;;;;;;12.41;36.19;99395.41;5077991;28;19931;-78
2024/02/03 11:22:15;;;;;;;;;;;;;;;12.83;35.61;99390.81;5072428;28;19999;-78
2024/02/03 11:24:41;;;;;;;;;;;;;;;13.03;36.16;99374.81;5052993;28;19917;-79
2024/02/03 11:27:08;;;;;;;;;;;;;;;12.98;35.44;99378.91;5070017;28;20376;-78
2024/02/03 11:29:34;;;;;;;;;;;;;;;13.01;34.96;99366.94;5079140;28;19923;-79
2024/02/03 11:32:00;;;;;;;;;;;;;;;13.09;34.82;99364.75;5055486;28;20309;-79
2024/02/03 11:34:27;;;;;;;;;;;;;;;13.12;34.90;99352.81;5055104;28;19959;-79
2024/02/03 11:36:54;;;;;;;;;;;;;;;13.30;34.46;99353.09;5053752;28;20369;-79
2024/02/03 11:39:33;;;;;;;;;;;;;;;13.29;35.46;99354.31;5054971;28;19921;-78
2024/02/03 11:42:01;;;;;;;;;;;;;;;13.17;35.59;99348.72;5050872;28;20007;-79
2024/02/03 11:44:34;;;;;;;;;;;;;;;12.91;35.65;99334.72;5053715;28;19921;-78
2024/02/03 11:46:59;;;;;;;;;;;;;;;12.89;35.97;99323.28;5054956;28;19917;-80
2024/02/03 11:49:24;;;;;;;;;;;;;;;12.80;36.34;99322.34;5054917;28;19920;-78
2024/02/03 11:51:57;;;;;;;;;;;;;;;12.99;37.05;99308.34;5073722;28;19916;-80
2024/02/03 11:54:23;;;;;;;;;;;;;;;13.18;36.62;99294.78;5073657;28;20441;-80
2024/02/03 11:56:49;;;;;;;;;;;;;;;13.09;36.38;99289.84;5051036;28;20031;-79
2024/02/03 11:59:23;;;;;;;;;;;;;;;12.85;36.20;99288.53;5054815;28;19948;-80
2024/02/03 12:01:49;;;;;;;;;;;;;;;12.86;38.42;99279.00;5072006;28;20382;-79
2024/02/03 12:04:15;;;;;;;;;;;;;;;12.96;38.13;99287.00;5043059;28;20794;-80
2024/02/03 12:06:40;;;;;;;;;;;;;;;12.84;37.67;99275.91;5066807;28;19917;-79
2024/02/03 12:09:08;;;;;;;;;;;;;;;12.65;37.81;99274.81;5063783;28;20005;-79
2024/02/03 12:11:34;;;;;;;;;;;;;;;12.56;38.09;99261.56;5055358;28;19986;-79
2024/02/03 12:13:59;;;;;;;;;;;;;;;12.48;37.20;99253.84;5055292;28;20441;-81
2024/02/03 12:16:25;;;;;;;;;;;;;;;12.70;40.67;99249.31;5072851;28;19917;-79
2024/02/03 12:18:51;;;;;;;;;;;;;;;12.97;39.31;99238.66;5055076;28;19939;-78
2024/02/03 12:21:16;;;;;;;;;;;;;;;12.47;38.25;99232.94;5072949;28;19919;-78
2024/02/03 12:23:41;;;;;;;;;;;;;;;12.23;39.27;99233.13;5073134;28;19952;-78
2024/02/03 12:26:07;;;;;;;;;;;;;;;12.35;38.52;99233.63;5055149;28;19974;-80
2024/02/03 12:28:32;;;;;;;;;;;;;;;12.20;39.50;99235.97;5073169;28;19928;-79
2024/02/03 12:30:58;;;;;;;;;;;;;;;11.89;37.43;99232.78;5054896;28;20435;-78
2024/02/03 12:33:23;;;;;;;;;;;;;;;11.82;38.37;99236.50;5055131;28;19916;-78
2024/02/03 12:35:50;;;;;;;;;;;;;;;11.88;38.41;99238.75;5072877;28;19963;-80
2024/02/03 12:38:15;;;;;;;;;;;;;;;12.41;38.92;99234.66;5054902;28;19916;-79
2024/02/03 12:40:41;;;;;;;;;;;;;;;12.53;37.86;99242.28;5073026;28;19942;-79
2024/02/03 12:43:06;;;;;;;;;;;;;;;12.47;37.90;99239.25;5054705;28;19923;-79
2024/02/03 12:45:31;;;;;;;;;;;;;;;12.44;38.60;99234.56;5054751;28;19973;-79
2024/02/03 12:47:57;;;;;;;;;;;;;;;12.58;38.07;99225.09;5054422;28;19981;-80